Time;durP1;ratioP1;P1;durP2;ratioP2;P2;SDS_P1;SDS_P2;PMS_P1;PMS_P2;Temp;Humidity;BMP_temperature;BMP_pressure;BME280_temperature;BME280_humidity;BME280_pressure;Samples;Min_cycle;Max_cycle;Signal;HPM_P1;HPM_P2
2023/04/24 00:00:14;;;;;;;15.75;12.13;;;9.20;99.90;;;;;;5050972;28;20459;-75
2023/04/24 00:02:41;;;;;;;14.93;11.10;;;9.10;99.90;;;;;;5050668;28;20029;-74
2023/04/24 00:05:08;;;;;;;15.38;11.90;;;9.10;99.90;;;;;;5051600;28;20142;-74
2023/04/24 00:07:34;;;;;;;15.80;10.90;;;9.20;99.90;;;;;;5054789;28;20037;-74
2023/04/24 00:10:00;;;;;;;15.85;11.73;;;9.20;99.90;;;;;;5055004;28;20021;-74
2023/04/24 00:12:26;;;;;;;15.68;11.90;;;9.20;99.90;;;;;;5055088;28;20032;-74
2023/04/24 00:14:53;;;;;;;15.73;12.93;;;9.20;99.90;;;;;;5054457;28;20021;-74
2023/04/24 00:17:19;;;;;;;15.35;11.52;;;9.10;99.90;;;;;;5054796;28;20116;-74
2023/04/24 00:19:50;;;;;;;17.80;12.52;;;9.10;99.90;;;;;;5054339;28;20033;-74
2023/04/24 00:22:17;;;;;;;16.98;12.60;;;9.00;99.90;;;;;;5054142;28;20025;-74
2023/04/24 00:24:43;;;;;;;16.55;12.50;;;9.00;99.90;;;;;;5054219;28;20063;-74
2023/04/24 00:27:09;;;;;;;18.42;13.30;;;9.00;99.90;;;;;;5054612;28;20466;-74
2023/04/24 00:29:34;;;;;;;17.02;12.48;;;8.90;99.90;;;;;;5054751;28;20151;-75
2023/04/24 00:32:00;;;;;;;14.93;12.75;;;8.90;99.90;;;;;;5054375;28;20049;-75
2023/04/24 00:34:26;;;;;;;18.23;11.93;;;8.90;99.90;;;;;;5054325;28;20099;-75
2023/04/24 00:36:52;;;;;;;16.25;12.02;;;8.80;99.90;;;;;;5054033;28;20031;-75
2023/04/24 00:39:20;;;;;;;15.63;11.65;;;8.80;99.90;;;;;;5054625;28;20028;-75
2023/04/24 00:41:47;;;;;;;18.58;12.85;;;8.70;99.90;;;;;;5054428;28;20029;-75
2023/04/24 00:44:14;;;;;;;16.52;12.07;;;8.70;99.90;;;;;;5054473;28;20028;-75
2023/04/24 00:46:40;;;;;;;19.90;11.60;;;8.60;99.90;;;;;;5053680;28;20478;-75
2023/04/24 00:49:06;;;;;;;14.70;11.40;;;8.60;99.90;;;;;;5053821;28;20059;-75
2023/04/24 00:51:32;;;;;;;15.98;11.95;;;8.50;99.90;;;;;;5054257;28;20437;-75
2023/04/24 00:54:01;;;;;;;13.80;11.13;;;8.40;99.90;;;;;;5053620;28;20025;-75
2023/04/24 00:56:27;;;;;;;17.10;12.07;;;8.40;99.90;;;;;;5053908;28;20116;-75
2023/04/24 00:58:54;;;;;;;13.07;10.68;;;8.40;99.90;;;;;;5053321;28;20113;-75
2023/04/24 01:01:20;;;;;;;18.58;11.30;;;8.40;99.90;;;;;;5054030;28;20025;-74
2023/04/24 01:03:47;;;;;;;19.45;12.48;;;8.30;99.90;;;;;;5053673;28;20032;-74
2023/04/24 01:06:14;;;;;;;18.23;11.52;;;8.30;99.90;;;;;;5054130;28;20103;-75
2023/04/24 01:08:41;;;;;;;18.30;11.55;;;8.30;99.90;;;;;;5053676;28;20033;-75
2023/04/24 01:11:06;;;;;;;18.42;12.80;;;8.30;99.90;;;;;;5054090;28;20048;-74
2023/04/24 01:13:33;;;;;;;15.65;11.52;;;8.20;99.90;;;;;;5053709;28;20036;-74
2023/04/24 01:16:00;;;;;;;16.17;11.00;;;8.20;99.90;;;;;;5053494;28;20106;-75
2023/04/24 01:18:26;;;;;;;18.77;11.88;;;8.30;99.90;;;;;;5053566;28;20272;-75
2023/04/24 01:20:56;;;;;;;17.65;11.90;;;8.20;99.90;;;;;;5052990;28;20431;-75
2023/04/24 01:23:22;;;;;;;15.57;10.95;;;8.30;99.90;;;;;;5053424;28;20045;-75
2023/04/24 01:25:49;;;;;;;16.80;10.93;;;8.30;99.90;;;;;;5053172;28;20029;-75
2023/04/24 01:28:15;;;;;;;15.88;10.68;;;8.30;99.90;;;;;;5053592;28;20037;-74
2023/04/24 01:30:41;;;;;;;15.95;12.10;;;8.30;99.90;;;;;;5051696;28;20433;-75
2023/04/24 01:33:07;;;;;;;24.48;12.43;;;8.30;99.90;;;;;;5053077;28;20323;-74
2023/04/24 01:35:34;;;;;;;17.83;12.07;;;8.30;99.90;;;;;;5053177;28;20127;-74
2023/04/24 01:38:00;;;;;;;18.17;12.88;;;8.40;99.90;;;;;;5052946;28;20087;-74
2023/04/24 01:40:25;;;;;;;15.70;11.60;;;8.30;99.90;;;;;;5053257;28;20431;-74
2023/04/24 01:42:52;;;;;;;15.70;11.05;;;8.40;99.90;;;;;;5052999;28;20425;-74
2023/04/24 01:45:18;;;;;;;18.73;10.95;;;8.40;99.90;;;;;;5053065;28;20021;-75
2023/04/24 01:47:45;;;;;;;16.58;12.00;;;8.30;99.90;;;;;;5052652;28;20031;-75
2023/04/24 01:50:10;;;;;;;16.27;11.05;;;8.40;99.90;;;;;;5053072;28;20021;-75
2023/04/24 01:52:36;;;;;;;16.77;10.95;;;8.30;99.90;;;;;;5053024;28;20082;-75
2023/04/24 01:55:06;;;;;;;15.68;11.25;;;8.30;99.90;;;;;;5052690;28;20092;-75
2023/04/24 01:57:33;;;;;;;15.80;11.70;;;8.30;99.90;;;;;;5053112;28;20060;-75
2023/04/24 01:59:58;;;;;;;17.83;11.43;;;8.20;99.90;;;;;;5052906;28;20532;-75
2023/04/24 02:02:27;;;;;;;16.27;10.82;;;8.20;99.90;;;;;;5053382;28;20013;-75
2023/04/24 02:04:53;;;;;;;15.23;10.13;;;8.30;99.90;;;;;;5052672;28;20021;-75
2023/04/24 02:07:19;;;;;;;14.00;8.10;;;8.30;99.90;;;;;;5052630;28;20040;-75
2023/04/24 02:09:45;;;;;;;13.55;8.60;;;8.30;99.90;;;;;;5052294;28;20103;-76
2023/04/24 02:12:11;;;;;;;14.63;9.90;;;8.30;99.90;;;;;;5053109;28;20028;-75
2023/04/24 02:14:36;;;;;;;15.70;10.73;;;8.30;99.90;;;;;;5052664;28;20017;-75
2023/04/24 02:17:02;;;;;;;13.73;9.77;;;8.30;99.90;;;;;;5051879;28;20424;-74
2023/04/24 02:19:28;;;;;;;19.63;11.45;;;8.30;99.90;;;;;;5052254;28;20464;-73
2023/04/24 02:21:53;;;;;;;17.48;11.38;;;8.30;99.90;;;;;;5052110;28;20049;-75
2023/04/24 02:24:19;;;;;;;14.50;10.93;;;8.30;99.90;;;;;;5051952;28;20048;-74
2023/04/24 02:26:45;;;;;;;19.33;9.63;;;8.30;99.90;;;;;;5051971;28;20371;-74
2023/04/24 02:29:11;;;;;;;16.15;10.10;;;8.30;99.90;;;;;;5051816;28;20035;-74
2023/04/24 02:31:36;;;;;;;16.35;10.10;;;8.30;99.90;;;;;;5052199;28;20043;-74
2023/04/24 02:34:02;;;;;;;15.73;9.13;;;8.30;99.90;;;;;;5051539;28;20029;-74
2023/04/24 02:36:28;;;;;;;12.45;8.38;;;8.30;99.90;;;;;;5051999;28;20024;-74
2023/04/24 02:38:54;;;;;;;14.98;9.25;;;8.40;99.90;;;;;;5051616;28;20056;-74
2023/04/24 02:41:19;;;;;;;12.60;9.05;;;8.40;99.90;;;;;;5052232;28;20148;-74
2023/04/24 02:43:45;;;;;;;13.52;9.27;;;8.40;99.90;;;;;;5051606;28;20115;-73
2023/04/24 02:46:11;;;;;;;19.45;9.95;;;8.30;99.90;;;;;;5051938;28;20028;-74
2023/04/24 02:48:37;;;;;;;15.43;9.48;;;8.30;99.90;;;;;;5051908;28;20029;-73
2023/04/24 02:51:03;;;;;;;13.85;8.80;;;8.30;99.90;;;;;;5051007;28;20025;-74
2023/04/24 02:53:30;;;;;;;11.80;8.48;;;8.30;99.90;;;;;;5051809;28;20025;-73
2023/04/24 02:55:56;;;;;;;15.80;9.35;;;8.30;99.90;;;;;;5051470;28;20021;-74
2023/04/24 02:58:22;;;;;;;16.83;9.05;;;8.40;99.90;;;;;;5051439;28;20489;-73
2023/04/24 03:00:48;;;;;;;14.38;8.88;;;8.40;99.90;;;;;;5051429;28;20017;-74
2023/04/24 03:03:15;;;;;;;16.30;9.27;;;8.40;99.90;;;;;;5051642;28;20406;-75
2023/04/24 03:05:40;;;;;;;11.80;8.07;;;8.40;99.90;;;;;;5051360;28;20025;-73
2023/04/24 03:08:06;;;;;;;12.15;8.35;;;8.40;99.90;;;;;;5051129;28;20033;-73
2023/04/24 03:10:32;;;;;;;14.38;8.95;;;8.40;99.90;;;;;;5051695;28;20353;-72
2023/04/24 03:12:58;;;;;;;17.33;7.95;;;8.40;99.90;;;;;;5050905;28;20021;-74
2023/04/24 03:15:23;;;;;;;11.15;6.97;;;8.40;99.90;;;;;;5051128;28;20060;-74
2023/04/24 03:17:49;;;;;;;11.10;7.18;;;8.40;99.90;;;;;;5051332;28;20020;-75
2023/04/24 03:20:15;;;;;;;12.55;7.80;;;8.40;99.90;;;;;;5051871;28;20021;-75
2023/04/24 03:22:41;;;;;;;11.13;7.28;;;8.40;99.90;;;;;;5051370;28;20348;-75
2023/04/24 03:25:09;;;;;;;11.45;7.25;;;8.40;99.90;;;;;;5051102;28;20733;-75
2023/04/24 03:27:34;;;;;;;12.93;7.10;;;8.40;99.90;;;;;;5051542;28;20036;-74
2023/04/24 03:30:00;;;;;;;15.77;8.05;;;8.50;99.90;;;;;;5050862;28;20024;-74
2023/04/24 03:32:26;;;;;;;11.82;7.75;;;8.50;99.90;;;;;;5051336;28;20044;-74
2023/04/24 03:34:52;;;;;;;11.82;7.20;;;8.50;99.90;;;;;;5050646;28;20017;-75
2023/04/24 03:37:17;;;;;;;13.73;7.20;;;8.60;99.90;;;;;;5051391;28;20024;-74
2023/04/24 03:39:43;;;;;;;11.40;6.93;;;8.60;99.90;;;;;;5049904;28;20028;-73
2023/04/24 03:42:09;;;;;;;11.80;7.20;;;8.50;99.90;;;;;;5050655;28;20071;-73
2023/04/24 03:44:36;;;;;;;14.55;7.38;;;8.50;99.90;;;;;;5050793;28;20366;-73
2023/04/24 03:47:01;;;;;;;12.77;8.32;;;8.50;99.90;;;;;;5050886;28;20110;-75
2023/04/24 03:49:27;;;;;;;13.50;7.50;;;8.50;99.90;;;;;;5050831;28;20526;-74
2023/04/24 03:51:53;;;;;;;13.52;8.27;;;8.40;99.90;;;;;;5049453;28;20017;-75
2023/04/24 03:54:19;;;;;;;15.73;9.07;;;8.40;99.90;;;;;;5051175;28;20370;-74
2023/04/24 03:56:45;;;;;;;13.93;9.10;;;8.30;99.90;;;;;;5050985;28;20129;-74
2023/04/24 03:59:11;;;;;;;13.43;9.00;;;8.30;99.90;;;;;;5050643;28;20029;-74
2023/04/24 04:01:37;;;;;;;11.40;8.50;;;8.30;99.90;;;;;;5050802;28;20469;-74
2023/04/24 04:04:04;;;;;;;13.40;8.07;;;8.40;99.90;;;;;;5050458;28;20331;-74
2023/04/24 04:06:32;;;;;;;15.70;8.90;;;8.40;99.90;;;;;;5050956;28;20514;-74
2023/04/24 04:08:58;;;;;;;12.82;7.65;;;8.40;99.90;;;;;;5050127;28;20135;-74
2023/04/24 04:11:24;;;;;;;13.18;7.57;;;8.40;99.90;;;;;;5050864;28;20083;-74
2023/04/24 04:13:50;;;;;;;11.40;8.02;;;8.40;99.90;;;;;;5050218;28;20401;-74
2023/04/24 04:16:17;;;;;;;13.85;7.50;;;8.40;99.90;;;;;;5050677;28;20075;-74
2023/04/24 04:18:43;;;;;;;13.77;7.90;;;8.30;99.90;;;;;;5050906;28;20021;-74
2023/04/24 04:21:09;;;;;;;13.27;8.45;;;8.30;99.90;;;;;;5050083;28;20023;-75
2023/04/24 04:23:35;;;;;;;14.48;8.27;;;8.30;99.90;;;;;;5050423;28;20545;-75
2023/04/24 04:26:01;;;;;;;13.45;8.88;;;8.40;99.90;;;;;;5050050;28;20178;-75
2023/04/24 04:28:27;;;;;;;14.50;7.90;;;8.40;99.90;;;;;;5050193;28;20032;-75
2023/04/24 04:30:57;;;;;;;14.18;8.27;;;8.30;99.90;;;;;;5050384;28;20021;-77
2023/04/24 04:33:23;;;;;;;12.23;8.25;;;8.30;99.90;;;;;;5049332;28;20021;-81
2023/04/24 04:35:51;;;;;;;13.50;8.15;;;8.30;99.90;;;;;;5052880;28;20040;-82
2023/04/24 04:38:20;;;;;;;17.88;4.97;;;8.30;99.90;;;;;;5050159;28;20021;-89
2023/04/24 04:40:47;;;;;;;10.93;1.98;;;8.10;99.90;;;;;;5052865;28;20025;-87
2023/04/24 04:43:35;;;;;;;4.85;1.23;;;7.80;99.90;;;;;;5066349;28;20112;-90
2023/04/24 04:46:26;;;;;;;19.45;2.08;;;7.20;99.90;;;;;;5067326;28;20036;-91
2023/04/24 04:48:56;;;;;;;2.70;1.35;;;6.70;99.90;;;;;;5060960;28;20059;-96
2023/04/24 04:51:32;;;;;;;;;;;;;;;;;;;;;
2023/04/24 04:53:58;;;;;;;3.53;1.80;;;6.30;99.90;;;;;;5055291;28;20025;-84
2023/04/24 04:56:24;;;;;;;2.55;2.15;;;6.40;99.90;;;;;;5053871;28;20105;-83
2023/04/24 04:58:50;;;;;;;7.80;2.50;;;6.40;99.90;;;;;;5055381;28;20020;-83
2023/04/24 05:01:15;;;;;;;13.85;2.83;;;6.50;99.90;;;;;;5055419;28;20044;-87
2023/04/24 05:03:41;;;;;;;5.53;3.70;;;6.60;99.90;;;;;;5055056;28;20021;-85
2023/04/24 05:06:07;;;;;;;7.95;3.78;;;6.70;99.90;;;;;;5053592;28;20071;-83
2023/04/24 05:08:33;;;;;;;10.45;4.47;;;6.80;99.90;;;;;;5058568;28;20075;-85
2023/04/24 05:10:59;;;;;;;7.00;4.40;;;6.90;99.90;;;;;;5058051;28;20025;-85
2023/04/24 05:13:25;;;;;;;12.10;4.18;;;6.90;99.90;;;;;;5053997;28;20372;-83
2023/04/24 05:15:51;;;;;;;11.88;4.03;;;6.90;99.90;;;;;;5053952;28;20017;-83
2023/04/24 05:18:16;;;;;;;12.48;5.07;;;6.90;99.90;;;;;;5053779;28;20025;-82
2023/04/24 05:20:43;;;;;;;11.98;4.65;;;7.00;99.90;;;;;;5054309;28;20323;-81
2023/04/24 05:23:09;;;;;;;16.05;4.85;;;7.10;99.90;;;;;;5053564;28;20045;-81
2023/04/24 05:25:35;;;;;;;15.73;5.97;;;7.20;99.90;;;;;;5053949;28;20032;-80
2023/04/24 05:28:02;;;;;;;16.98;6.00;;;7.30;99.90;;;;;;5052081;28;20025;-78
2023/04/24 05:30:28;;;;;;;14.70;6.00;;;7.20;99.90;;;;;;5053846;28;20120;-77
2023/04/24 05:32:54;;;;;;;13.65;5.45;;;7.20;99.90;;;;;;5053269;28;20024;-76
2023/04/24 05:35:19;;;;;;;16.73;5.03;;;7.30;99.90;;;;;;5053188;28;20043;-77
2023/04/24 05:37:45;;;;;;;15.98;4.72;;;7.20;99.90;;;;;;5053147;28;20142;-76
2023/04/24 05:40:11;;;;;;;16.67;4.72;;;7.20;99.90;;;;;;5052341;28;20025;-76
2023/04/24 05:42:37;;;;;;;19.33;4.35;;;7.20;99.90;;;;;;5053588;28;20043;-75
2023/04/24 05:45:04;;;;;;;14.57;4.20;;;7.00;99.90;;;;;;5052725;28;20036;-75
2023/04/24 05:47:29;;;;;;;21.45;4.57;;;7.00;99.90;;;;;;5053256;28;20108;-76
2023/04/24 05:49:55;;;;;;;17.58;3.90;;;6.90;99.90;;;;;;5051588;28;20459;-76
2023/04/24 05:52:21;;;;;;;12.75;3.88;;;6.90;99.90;;;;;;5052628;28;20025;-75
2023/04/24 05:54:47;;;;;;;11.30;3.60;;;6.80;99.90;;;;;;5052868;28;20083;-76
2023/04/24 05:57:13;;;;;;;17.98;3.83;;;6.80;99.90;;;;;;5052848;28;20450;-76
2023/04/24 05:59:38;;;;;;;11.73;3.70;;;6.70;99.90;;;;;;5052885;28;20025;-75
2023/04/24 06:02:05;;;;;;;11.13;3.60;;;6.70;99.90;;;;;;5052420;28;20048;-76
2023/04/24 06:04:31;;;;;;;18.80;3.30;;;6.70;99.90;;;;;;5051702;28;20066;-76
2023/04/24 06:06:57;;;;;;;10.80;3.38;;;6.60;99.90;;;;;;5052150;28;20062;-80
2023/04/24 06:09:23;;;;;;;10.98;3.55;;;6.70;99.90;;;;;;5052438;28;20067;-75
2023/04/24 06:11:49;;;;;;;11.90;3.30;;;6.60;99.90;;;;;;5052637;28;20104;-75
2023/04/24 06:14:15;;;;;;;8.57;3.50;;;6.60;99.90;;;;;;5052302;28;20025;-75
2023/04/24 06:16:42;;;;;;;13.48;3.60;;;6.60;99.90;;;;;;5052631;28;20035;-76
2023/04/24 06:19:08;;;;;;;13.70;4.85;;;6.60;99.90;;;;;;5052889;28;20028;-76
2023/04/24 06:21:34;;;;;;;11.50;3.95;;;6.60;99.90;;;;;;5052694;28;20473;-76
2023/04/24 06:24:00;;;;;;;13.18;3.80;;;6.60;99.90;;;;;;5052554;28;20044;-79
2023/04/24 06:26:26;;;;;;;13.32;4.25;;;6.60;99.90;;;;;;5052554;28;20036;-78
2023/04/24 06:28:53;;;;;;;12.52;4.20;;;6.60;99.90;;;;;;5053515;28;20025;-78
2023/04/24 06:31:20;;;;;;;14.85;4.85;;;6.70;99.90;;;;;;5051889;28;20042;-76
2023/04/24 06:33:46;;;;;;;13.15;5.30;;;6.70;99.90;;;;;;5052077;28;20108;-77
2023/04/24 06:36:12;;;;;;;10.60;4.20;;;6.70;99.90;;;;;;5051861;28;20112;-77
2023/04/24 06:38:38;;;;;;;11.88;4.10;;;6.70;99.90;;;;;;5052262;28;20021;-76
2023/04/24 06:41:05;;;;;;;8.57;3.53;;;6.60;99.90;;;;;;5051678;28;20109;-77
2023/04/24 06:43:31;;;;;;;13.50;4.10;;;6.50;99.90;;;;;;5051988;28;20025;-76
2023/04/24 06:45:58;;;;;;;12.63;3.95;;;6.50;99.90;;;;;;5051746;28;20032;-76
2023/04/24 06:48:25;;;;;;;9.05;3.22;;;6.50;99.90;;;;;;5051018;28;20378;-77
2023/04/24 06:50:51;;;;;;;10.68;4.03;;;6.50;99.90;;;;;;5051917;28;20377;-76
2023/04/24 06:53:17;;;;;;;13.50;4.20;;;6.40;99.90;;;;;;5051305;28;20103;-75
2023/04/24 06:55:44;;;;;;;8.93;3.40;;;6.50;99.90;;;;;;5051278;28;20083;-77
2023/04/24 06:58:10;;;;;;;10.43;2.97;;;6.50;99.90;;;;;;5051057;28;20026;-76
2023/04/24 07:00:36;;;;;;;8.98;3.15;;;6.50;99.90;;;;;;5051467;28;20063;-77
2023/04/24 07:03:02;;;;;;;5.90;2.90;;;6.40;99.90;;;;;;5051060;28;20048;-76
2023/04/24 07:05:29;;;;;;;5.18;2.42;;;6.40;99.90;;;;;;5051432;28;20044;-77
2023/04/24 07:07:54;;;;;;;6.75;3.10;;;6.30;99.90;;;;;;5050073;28;20059;-78
2023/04/24 07:10:20;;;;;;;9.52;2.70;;;6.40;99.90;;;;;;5050651;28;20488;-77
2023/04/24 07:12:47;;;;;;;5.60;2.58;;;6.40;99.90;;;;;;5051518;28;20025;-77
2023/04/24 07:15:12;;;;;;;7.70;2.60;;;6.40;99.90;;;;;;5050608;28;20017;-77
2023/04/24 07:17:42;;;;;;;6.97;2.92;;;6.40;99.90;;;;;;5051154;28;20112;-76
2023/04/24 07:20:10;;;;;;;7.90;2.70;;;6.40;99.90;;;;;;5050741;28;20086;-77
2023/04/24 07:22:37;;;;;;;9.07;2.78;;;6.40;99.90;;;;;;5050832;28;20053;-77
2023/04/24 07:25:03;;;;;;;10.45;3.28;;;6.50;99.90;;;;;;5050424;28;20538;-77
2023/04/24 07:27:29;;;;;;;12.18;3.50;;;6.50;99.90;;;;;;5050743;28;20117;-76
2023/04/24 07:29:54;;;;;;;9.77;3.38;;;6.50;99.90;;;;;;5050788;28;20104;-75
2023/04/24 07:32:20;;;;;;;9.85;3.00;;;6.60;99.90;;;;;;5050459;28;20112;-77
2023/04/24 07:34:46;;;;;;;6.43;3.20;;;6.50;99.90;;;;;;5051089;28;20079;-76
2023/04/24 07:37:12;;;;;;;11.77;3.90;;;6.60;99.90;;;;;;5050305;28;20035;-76
2023/04/24 07:39:37;;;;;;;10.65;3.53;;;6.60;99.90;;;;;;5050688;28;20021;-77
2023/04/24 07:42:03;;;;;;;10.50;3.80;;;6.60;99.90;;;;;;5050266;28;20083;-79
2023/04/24 07:44:29;;;;;;;10.77;3.28;;;6.50;99.90;;;;;;5050690;28;20025;-77
2023/04/24 07:46:55;;;;;;;6.18;2.80;;;6.40;99.90;;;;;;5050839;28;20024;-77
2023/04/24 07:49:21;;;;;;;7.28;2.88;;;6.50;99.90;;;;;;5050057;28;20086;-77
2023/04/24 07:51:47;;;;;;;8.10;2.78;;;6.40;99.90;;;;;;5051363;28;20092;-78
2023/04/24 07:54:13;;;;;;;9.38;2.75;;;6.50;99.90;;;;;;5050460;28;20029;-78
2023/04/24 07:56:39;;;;;;;6.63;2.60;;;6.50;99.90;;;;;;5050996;28;20433;-78
2023/04/24 07:59:05;;;;;;;6.38;2.65;;;6.60;99.90;;;;;;5050444;28;20078;-79
2023/04/24 08:01:31;;;;;;;7.93;2.45;;;6.60;99.90;;;;;;5050694;28;20474;-78
2023/04/24 08:03:56;;;;;;;8.60;2.72;;;6.60;99.90;;;;;;5050416;28;20025;-77
2023/04/24 08:06:23;;;;;;;12.07;3.17;;;6.70;99.90;;;;;;5049990;28;20111;-77
2023/04/24 08:08:48;;;;;;;11.75;3.45;;;6.80;99.90;;;;;;5050472;28;20033;-77
2023/04/24 08:11:14;;;;;;;10.93;3.53;;;7.00;99.90;;;;;;5050155;28;20104;-76
2023/04/24 08:13:40;;;;;;;10.95;3.85;;;7.10;99.90;;;;;;5050376;28;20385;-76
2023/04/24 08:16:05;;;;;;;12.05;3.40;;;7.20;99.90;;;;;;5049856;28;20028;-76
2023/04/24 08:18:31;;;;;;;11.68;2.92;;;7.40;99.90;;;;;;5050544;28;20025;-76
2023/04/24 08:21:01;;;;;;;9.20;2.90;;;7.20;99.90;;;;;;5050441;28;20044;-75
2023/04/24 08:23:27;;;;;;;13.95;3.83;;;7.20;99.90;;;;;;5049746;28;20049;-75
2023/04/24 08:25:52;;;;;;;8.93;2.88;;;7.30;99.90;;;;;;5050737;28;20519;-74
2023/04/24 08:28:20;;;;;;;12.00;3.03;;;7.40;99.90;;;;;;5053878;28;20120;-74
2023/04/24 08:30:54;;;;;;;6.65;2.25;;;7.40;99.90;;;;;;5054487;28;20032;-74
2023/04/24 08:33:21;;;;;;;9.32;2.40;;;7.30;99.90;;;;;;5054011;28;20075;-74
2023/04/24 08:35:47;;;;;;;11.75;2.97;;;7.30;99.90;;;;;;5054358;28;20029;-75
2023/04/24 08:38:13;;;;;;;6.75;2.70;;;7.30;99.90;;;;;;5054184;28;20159;-75
2023/04/24 08:40:39;;;;;;;12.48;3.30;;;7.30;99.90;;;;;;5054511;28;20029;-75
2023/04/24 08:43:05;;;;;;;9.55;2.75;;;7.50;99.90;;;;;;5054524;28;20111;-75
2023/04/24 08:45:32;;;;;;;10.60;3.10;;;7.60;99.90;;;;;;5053826;28;20021;-74
2023/04/24 08:47:59;;;;;;;7.43;2.15;;;7.60;99.90;;;;;;5054050;28;20574;-74
2023/04/24 08:50:25;;;;;;;10.15;2.40;;;7.40;99.90;;;;;;5053580;28;20156;-75
2023/04/24 08:52:54;;;;;;;5.95;2.70;;;7.50;99.90;;;;;;5053788;28;20375;-74
2023/04/24 08:55:21;;;;;;;4.55;2.38;;;7.60;99.90;;;;;;5053522;28;20028;-75
2023/04/24 08:57:52;;;;;;;8.38;2.65;;;7.50;99.90;;;;;;5053864;28;20021;-72
2023/04/24 09:00:22;;;;;;;10.95;3.38;;;7.50;99.90;;;;;;5053317;28;20066;-74
2023/04/24 09:02:50;;;;;;;12.02;2.60;;;7.50;99.90;;;;;;5053840;28;20120;-73
2023/04/24 09:05:18;;;;;;;8.77;1.90;;;7.50;99.90;;;;;;5053294;28;20174;-73
2023/04/24 09:07:49;;;;;;;9.93;2.70;;;7.40;99.90;;;;;;5053824;28;20047;-74
2023/04/24 09:10:15;;;;;;;7.90;2.08;;;7.50;99.90;;;;;;5053290;28;20414;-75
2023/04/24 09:12:42;;;;;;;6.25;2.20;;;7.50;99.90;;;;;;5053610;28;20104;-75
2023/04/24 09:15:09;;;;;;;8.43;2.92;;;7.40;99.90;;;;;;5053487;28;20108;-74
2023/04/24 09:17:35;;;;;;;9.93;2.03;;;7.50;99.90;;;;;;5053565;28;20031;-75
2023/04/24 09:20:01;;;;;;;5.63;2.35;;;7.50;99.90;;;;;;5052231;28;20399;-75
2023/04/24 09:22:30;;;;;;;6.72;2.10;;;7.50;99.90;;;;;;5052721;28;20121;-74
2023/04/24 09:25:08;;;;;;;5.70;2.10;;;7.50;99.90;;;;;;5053394;28;20056;-74
2023/04/24 09:27:35;;;;;;;6.55;2.05;;;7.40;99.90;;;;;;5053073;28;20021;-74
2023/04/24 09:30:02;;;;;;;4.97;2.20;;;7.40;99.90;;;;;;5053190;28;20025;-74
2023/04/24 09:32:29;;;;;;;5.35;1.90;;;7.30;99.90;;;;;;5052573;28;20025;-74
2023/04/24 09:35:08;;;;;;;7.80;2.05;;;7.30;99.90;;;;;;5052951;28;20023;-75
2023/04/24 09:37:39;;;;;;;6.97;1.90;;;7.30;99.90;;;;;;5051361;28;20029;-75
2023/04/24 09:40:11;;;;;;;6.65;2.33;;;7.40;99.90;;;;;;5053056;28;20354;-74
2023/04/24 09:42:37;;;;;;;8.70;2.60;;;7.40;99.90;;;;;;5052938;28;20025;-74
2023/04/24 09:45:04;;;;;;;9.60;2.70;;;7.40;99.90;;;;;;5053209;28;20032;-74
2023/04/24 09:47:40;;;;;;;5.53;2.17;;;7.40;99.90;;;;;;5052281;28;20033;-73
2023/04/24 09:50:14;;;;;;;6.85;2.03;;;7.40;99.90;;;;;;5051381;28;20025;-74
2023/04/24 09:52:41;;;;;;;4.35;2.40;;;7.60;99.90;;;;;;5052976;28;20120;-74
2023/04/24 09:55:19;;;;;;;5.20;1.75;;;7.70;99.90;;;;;;5052595;28;20124;-74
2023/04/24 09:58:05;;;;;;;6.97;1.98;;;7.90;99.90;;;;;;5052752;28;20025;-74
2023/04/24 10:00:33;;;;;;;3.30;1.90;;;7.90;99.90;;;;;;5052255;28;20025;-74
2023/04/24 10:03:01;;;;;;;5.80;2.42;;;8.00;99.90;;;;;;5052665;28;20104;-74
2023/04/24 10:05:29;;;;;;;8.95;2.13;;;8.10;99.90;;;;;;5052018;28;20025;-74
2023/04/24 10:08:11;;;;;;;11.18;2.83;;;8.10;99.90;;;;;;5050922;28;20051;-74
2023/04/24 10:10:44;;;;;;;7.10;2.33;;;8.00;99.90;;;;;;5052565;28;20446;-74
2023/04/24 10:13:12;;;;;;;10.07;2.45;;;7.90;99.90;;;;;;5052565;28;20242;-74
2023/04/24 10:15:38;;;;;;;8.05;2.45;;;7.70;99.90;;;;;;5052436;28;20100;-75
2023/04/24 10:18:06;;;;;;;10.68;2.60;;;7.70;99.90;;;;;;5052113;28;20450;-74
2023/04/24 10:20:33;;;;;;;8.98;2.53;;;7.70;99.90;;;;;;5052255;28;20036;-73
2023/04/24 10:23:00;;;;;;;4.72;2.28;;;7.70;99.90;;;;;;5052020;28;20080;-74
2023/04/24 10:25:28;;;;;;;5.90;2.85;;;7.90;99.90;;;;;;5050619;28;20597;-74
2023/04/24 10:27:59;;;;;;;11.65;3.17;;;8.20;99.90;;;;;;5051995;28;20048;-73
2023/04/24 10:30:27;;;;;;;7.28;2.30;;;8.40;99.90;;;;;;5051914;28;20017;-74
2023/04/24 10:32:53;;;;;;;9.65;2.63;;;8.40;99.90;;;;;;5052177;28;20122;-73
2023/04/24 10:35:22;;;;;;;5.22;1.70;;;8.60;99.90;;;;;;5051584;28;20056;-74
2023/04/24 10:37:56;;;;;;;9.10;2.20;;;8.70;99.90;;;;;;5052092;28;20029;-74
2023/04/24 10:40:34;;;;;;;6.28;2.40;;;8.80;99.90;;;;;;5051447;28;20484;-74
2023/04/24 10:43:03;;;;;;;8.43;2.50;;;8.90;99.90;;;;;;5052012;28;20100;-75
2023/04/24 10:45:28;;;;;;;7.13;2.30;;;8.90;99.90;;;;;;5051717;28;20017;-73
2023/04/24 10:47:59;;;;;;;6.65;2.30;;;8.70;99.90;;;;;;5052052;28;20031;-74
2023/04/24 10:50:29;;;;;;;7.10;2.10;;;8.80;99.90;;;;;;5051470;28;20361;-73
2023/04/24 10:53:06;;;;;;;5.78;1.83;;;8.50;99.90;;;;;;5052129;28;20024;-74
2023/04/24 10:55:43;;;;;;;5.35;2.10;;;8.30;99.90;;;;;;5051314;28;20017;-73
2023/04/24 10:58:10;;;;;;;8.95;2.05;;;8.30;99.90;;;;;;5052270;28;20042;-72
2023/04/24 11:00:40;;;;;;;7.90;2.30;;;8.30;99.90;;;;;;5051544;28;20111;-73
2023/04/24 11:03:21;;;;;;;8.90;2.67;;;8.40;99.90;;;;;;5051481;28;20044;-73
2023/04/24 11:06:00;;;;;;;6.25;2.00;;;8.50;99.90;;;;;;5051716;28;20024;-74
2023/04/24 11:08:29;;;;;;;6.03;1.92;;;8.50;99.90;;;;;;5050913;28;20107;-74
2023/04/24 11:10:59;;;;;;;6.78;1.88;;;8.60;99.90;;;;;;5051378;28;20025;-73
2023/04/24 11:13:28;;;;;;;7.28;2.08;;;8.70;99.90;;;;;;5050915;28;20032;-73
2023/04/24 11:16:34;;;;;;;10.38;2.35;;;8.70;99.90;;;;;;5051258;28;20025;-73
2023/04/24 11:19:19;;;;;;;9.73;2.63;;;8.60;99.90;;;;;;5051374;28;20025;-74
2023/04/24 11:21:55;;;;;;;9.40;1.90;;;8.50;99.90;;;;;;5051043;28;20111;-74
2023/04/24 11:24:27;;;;;;;7.40;1.80;;;8.60;99.90;;;;;;5050345;28;20045;-73
2023/04/24 11:26:54;;;;;;;;;;;8.70;99.90;;;;;;5051563;28;20029;-73
2023/04/24 11:29:21;;;;;;;10.25;2.35;;;8.70;99.90;;;;;;5050247;28;20329;-73
2023/04/24 11:31:51;;;;;;;10.65;2.30;;;8.90;99.90;;;;;;5051065;28;20025;-73
2023/04/24 11:34:18;;;;;;;10.55;2.00;;;9.00;99.90;;;;;;5051151;28;20075;-77
2023/04/24 11:37:02;;;;;;;9.00;2.03;;;8.90;99.90;;;;;;5050747;28;20052;-73
2023/04/24 11:39:28;;;;;;;8.05;2.20;;;9.00;99.90;;;;;;5050634;28;20071;-73
2023/04/24 11:42:01;;;;;;;6.78;1.92;;;9.00;99.90;;;;;;5051121;28;20025;-73
2023/04/24 11:44:28;;;;;;;6.55;2.10;;;9.00;99.90;;;;;;5050721;28;20103;-74
2023/04/24 11:46:56;;;;;;;8.85;2.05;;;9.00;99.90;;;;;;5051024;28;20029;-74
2023/04/24 11:49:21;;;;;;;5.53;1.90;;;8.90;99.90;;;;;;5050717;28;20043;-74
2023/04/24 11:51:47;;;;;;;7.75;2.00;;;8.90;99.90;;;;;;5051054;28;20108;-74
2023/04/24 11:54:13;;;;;;;7.07;1.73;;;9.00;99.90;;;;;;5050941;28;20029;-74
2023/04/24 11:56:39;;;;;;;9.90;2.30;;;9.00;99.90;;;;;;5050280;28;20490;-73
2023/04/24 11:59:04;;;;;;;8.25;2.38;;;9.10;99.90;;;;;;5050666;28;20108;-73
2023/04/24 12:01:43;;;;;;;8.05;2.00;;;9.10;99.90;;;;;;5049440;28;20073;-73
2023/04/24 12:04:08;;;;;;;8.93;2.17;;;9.10;99.90;;;;;;5050852;28;20314;-73
2023/04/24 12:06:34;;;;;;;4.45;1.75;;;9.10;99.90;;;;;;5050395;28;20021;-74
2023/04/24 12:09:00;;;;;;;5.45;2.00;;;9.20;99.90;;;;;;5050610;28;20025;-74
2023/04/24 12:11:26;;;;;;;9.73;2.40;;;9.30;99.90;;;;;;5050637;28;20032;-74
2023/04/24 12:13:52;;;;;;;8.35;2.47;;;9.40;99.90;;;;;;5051006;28;20021;-74
2023/04/24 12:16:17;;;;;;;5.68;1.98;;;9.40;99.90;;;;;;5050804;28;20025;-74
2023/04/24 12:18:45;;;;;;;8.23;1.85;;;9.30;99.90;;;;;;5050457;28;20025;-73
2023/04/24 12:21:26;;;;;;;8.60;2.08;;;9.30;99.90;;;;;;5050983;28;20457;-74
2023/04/24 12:23:54;;;;;;;5.38;1.98;;;9.30;99.90;;;;;;5051076;28;20327;-74
2023/04/24 12:26:22;;;;;;;6.78;1.85;;;9.30;99.90;;;;;;5050539;28;20136;-78
2023/04/24 12:28:49;;;;;;;5.78;1.90;;;9.30;99.90;;;;;;5050875;28;20108;-75
2023/04/24 12:31:16;;;;;;;6.88;2.03;;;9.30;99.90;;;;;;5050862;28;20109;-73
2023/04/24 12:33:43;;;;;;;6.45;1.80;;;9.30;99.90;;;;;;5050345;28;20444;-73
2023/04/24 12:36:12;;;;;;;5.63;2.05;;;9.20;99.90;;;;;;5049200;28;20110;-73
2023/04/24 12:38:41;;;;;;;5.65;1.80;;;9.30;99.90;;;;;;5049822;28;20025;-74
2023/04/24 12:41:07;;;;;;;5.40;1.80;;;9.20;99.90;;;;;;5050584;28;20059;-73
2023/04/24 12:43:34;;;;;;;6.78;1.70;;;9.20;99.90;;;;;;5049909;28;20056;-74
2023/04/24 12:46:00;;;;;;;6.82;1.90;;;9.20;99.90;;;;;;5050015;28;20499;-74
2023/04/24 12:48:27;;;;;;;6.53;1.88;;;9.20;99.90;;;;;;5049833;28;20115;-74
2023/04/24 12:50:52;;;;;;;7.75;2.30;;;9.20;99.90;;;;;;5049766;28;20025;-73